sensor_id;sensor_type;location;lat;lon;timestamp;P1;durP1;ratioP1;P2;durP2;ratioP2
30370;SDS011;17164;48.590;11.410;2023-07-13T00:01:26;3.73;;;2.80;;
30370;SDS011;17164;48.590;11.410;2023-07-13T00:03:52;4.57;;;2.83;;
30370;SDS011;17164;48.590;11.410;2023-07-13T00:06:18;4.00;;;3.03;;
30370;SDS011;17164;48.590;11.410;2023-07-13T00:08:45;5.87;;;3.00;;
30370;SDS011;17164;48.590;11.410;2023-07-13T00:11:12;3.60;;;2.70;;
30370;SDS011;17164;48.590;11.410;2023-07-13T00:13:39;5.03;;;2.73;;
30370;SDS011;17164;48.590;11.410;2023-07-13T00:16:05;8.83;;;2.73;;
30370;SDS011;17164;48.590;11.410;2023-07-13T00:18:31;9.27;;;3.33;;
30370;SDS011;17164;48.590;11.410;2023-07-13T00:20:57;6.37;;;2.97;;
30370;SDS011;17164;48.590;11.410;2023-07-13T00:23:30;9.07;;;3.00;;
30370;SDS011;17164;48.590;11.410;2023-07-13T00:26:00;4.33;;;3.03;;
30370;SDS011;17164;48.590;11.410;2023-07-13T00:28:27;4.97;;;3.10;;
30370;SDS011;17164;48.590;11.410;2023-07-13T00:30:53;5.83;;;3.27;;
30370;SDS011;17164;48.590;11.410;2023-07-13T00:33:19;5.70;;;3.40;;
30370;SDS011;17164;48.590;11.410;2023-07-13T00:35:45;6.67;;;3.47;;
30370;SDS011;17164;48.590;11.410;2023-07-13T00:38:11;5.37;;;3.40;;
30370;SDS011;17164;48.590;11.410;2023-07-13T00:40:36;7.57;;;3.60;;
30370;SDS011;17164;48.590;11.410;2023-07-13T00:43:02;7.30;;;3.20;;
30370;SDS011;17164;48.590;11.410;2023-07-13T00:47:55;4.97;;;2.90;;
30370;SDS011;17164;48.590;11.410;2023-07-13T00:50:22;6.87;;;3.83;;
30370;SDS011;17164;48.590;11.410;2023-07-13T00:52:50;7.70;;;3.50;;
30370;SDS011;17164;48.590;11.410;2023-07-13T00:55:19;6.07;;;3.63;;
30370;SDS011;17164;48.590;11.410;2023-07-13T00:57:46;7.03;;;3.40;;
30370;SDS011;17164;48.590;11.410;2023-07-13T01:00:12;5.70;;;3.60;;
30370;SDS011;17164;48.590;11.410;2023-07-13T01:02:40;9.07;;;3.90;;
30370;SDS011;17164;48.590;11.410;2023-07-13T01:05:11;7.20;;;3.80;;
30370;SDS011;17164;48.590;11.410;2023-07-13T01:07:39;9.50;;;3.97;;
30370;SDS011;17164;48.590;11.410;2023-07-13T01:10:07;5.80;;;3.77;;
30370;SDS011;17164;48.590;11.410;2023-07-13T01:12:33;11.90;;;3.37;;
30370;SDS011;17164;48.590;11.410;2023-07-13T01:15:00;7.27;;;3.63;;
30370;SDS011;17164;48.590;11.410;2023-07-13T01:17:27;4.67;;;3.17;;
30370;SDS011;17164;48.590;11.410;2023-07-13T01:19:53;7.83;;;3.60;;
30370;SDS011;17164;48.590;11.410;2023-07-13T01:22:19;9.67;;;4.43;;
30370;SDS011;17164;48.590;11.410;2023-07-13T01:24:50;7.07;;;3.20;;
30370;SDS011;17164;48.590;11.410;2023-07-13T01:27:19;8.33;;;3.60;;
30370;SDS011;17164;48.590;11.410;2023-07-13T01:29:50;8.70;;;4.23;;
30370;SDS011;17164;48.590;11.410;2023-07-13T01:32:22;10.87;;;4.53;;
30370;SDS011;17164;48.590;11.410;2023-07-13T01:34:52;11.10;;;4.07;;
30370;SDS011;17164;48.590;11.410;2023-07-13T01:37:19;11.87;;;4.00;;
30370;SDS011;17164;48.590;11.410;2023-07-13T01:39:46;8.50;;;4.63;;
30370;SDS011;17164;48.590;11.410;2023-07-13T01:42:12;8.53;;;4.13;;
30370;SDS011;17164;48.590;11.410;2023-07-13T01:44:38;11.10;;;4.23;;
30370;SDS011;17164;48.590;11.410;2023-07-13T01:47:03;8.03;;;3.93;;
30370;SDS011;17164;48.590;11.410;2023-07-13T01:49:29;7.03;;;3.80;;
30370;SDS011;17164;48.590;11.410;2023-07-13T01:51:55;14.63;;;4.60;;
30370;SDS011;17164;48.590;11.410;2023-07-13T01:54:20;8.97;;;4.10;;
30370;SDS011;17164;48.590;11.410;2023-07-13T01:56:46;8.93;;;4.43;;
30370;SDS011;17164;48.590;11.410;2023-07-13T01:59:12;12.40;;;4.20;;
30370;SDS011;17164;48.590;11.410;2023-07-13T02:01:37;8.00;;;4.70;;
30370;SDS011;17164;48.590;11.410;2023-07-13T02:04:03;11.20;;;4.07;;
30370;SDS011;17164;48.590;11.410;2023-07-13T02:06:28;8.43;;;4.20;;
30370;SDS011;17164;48.590;11.410;2023-07-13T02:08:54;7.33;;;4.77;;
30370;SDS011;17164;48.590;11.410;2023-07-13T02:11:20;12.03;;;4.40;;
30370;SDS011;17164;48.590;11.410;2023-07-13T02:13:46;7.93;;;4.47;;
30370;SDS011;17164;48.590;11.410;2023-07-13T02:16:11;11.27;;;4.40;;
30370;SDS011;17164;48.590;11.410;2023-07-13T02:18:37;6.17;;;4.50;;
30370;SDS011;17164;48.590;11.410;2023-07-13T02:21:03;8.23;;;4.87;;
30370;SDS011;17164;48.590;11.410;2023-07-13T02:23:29;11.73;;;4.70;;
30370;SDS011;17164;48.590;11.410;2023-07-13T02:25:55;8.30;;;5.30;;
30370;SDS011;17164;48.590;11.410;2023-07-13T02:28:22;13.97;;;5.30;;
30370;SDS011;17164;48.590;11.410;2023-07-13T02:30:48;9.87;;;5.10;;
30370;SDS011;17164;48.590;11.410;2023-07-13T02:33:13;15.80;;;5.70;;
30370;SDS011;17164;48.590;11.410;2023-07-13T02:35:39;13.87;;;5.40;;
30370;SDS011;17164;48.590;11.410;2023-07-13T02:38:05;11.15;;;5.45;;
30370;SDS011;17164;48.590;11.410;2023-07-13T02:40:31;9.33;;;5.33;;
30370;SDS011;17164;48.590;11.410;2023-07-13T02:43:00;13.33;;;5.13;;
30370;SDS011;17164;48.590;11.410;2023-07-13T02:45:27;9.90;;;5.07;;
30370;SDS011;17164;48.590;11.410;2023-07-13T02:47:53;16.87;;;6.23;;
30370;SDS011;17164;48.590;11.410;2023-07-13T02:50:19;15.63;;;5.63;;
30370;SDS011;17164;48.590;11.410;2023-07-13T02:52:45;15.03;;;5.70;;
30370;SDS011;17164;48.590;11.410;2023-07-13T02:55:11;10.40;;;5.77;;
30370;SDS011;17164;48.590;11.410;2023-07-13T02:57:36;17.93;;;6.57;;
30370;SDS011;17164;48.590;11.410;2023-07-13T03:00:03;10.57;;;5.77;;
30370;SDS011;17164;48.590;11.410;2023-07-13T03:02:30;19.87;;;6.63;;
30370;SDS011;17164;48.590;11.410;2023-07-13T03:04:57;12.47;;;5.57;;
30370;SDS011;17164;48.590;11.410;2023-07-13T03:07:23;10.97;;;5.63;;
30370;SDS011;17164;48.590;11.410;2023-07-13T03:09:53;13.70;;;6.53;;
30370;SDS011;17164;48.590;11.410;2023-07-13T03:12:20;11.87;;;5.70;;
30370;SDS011;17164;48.590;11.410;2023-07-13T03:14:46;14.17;;;6.33;;
30370;SDS011;17164;48.590;11.410;2023-07-13T03:17:12;12.47;;;6.27;;
30370;SDS011;17164;48.590;11.410;2023-07-13T03:19:37;10.67;;;5.40;;
30370;SDS011;17164;48.590;11.410;2023-07-13T03:22:03;14.87;;;5.67;;
30370;SDS011;17164;48.590;11.410;2023-07-13T03:24:29;12.23;;;6.43;;
30370;SDS011;17164;48.590;11.410;2023-07-13T03:26:54;12.70;;;6.50;;
30370;SDS011;17164;48.590;11.410;2023-07-13T03:29:20;11.60;;;6.33;;
30370;SDS011;17164;48.590;11.410;2023-07-13T03:31:46;8.77;;;5.97;;
30370;SDS011;17164;48.590;11.410;2023-07-13T03:34:11;17.00;;;7.87;;
30370;SDS011;17164;48.590;11.410;2023-07-13T03:36:37;12.90;;;7.13;;
30370;SDS011;17164;48.590;11.410;2023-07-13T03:39:03;15.60;;;8.17;;
30370;SDS011;17164;48.590;11.410;2023-07-13T03:41:28;13.93;;;7.07;;
30370;SDS011;17164;48.590;11.410;2023-07-13T03:43:56;13.90;;;6.93;;
30370;SDS011;17164;48.590;11.410;2023-07-13T03:46:22;9.30;;;6.43;;
30370;SDS011;17164;48.590;11.410;2023-07-13T03:48:47;11.50;;;6.50;;
30370;SDS011;17164;48.590;11.410;2023-07-13T03:51:14;6.73;;;5.00;;
30370;SDS011;17164;48.590;11.410;2023-07-13T03:53:42;9.20;;;5.37;;
30370;SDS011;17164;48.590;11.410;2023-07-13T03:56:08;9.73;;;5.30;;
30370;SDS011;17164;48.590;11.410;2023-07-13T03:58:35;14.63;;;5.37;;
30370;SDS011;17164;48.590;11.410;2023-07-13T04:01:03;7.83;;;4.77;;
30370;SDS011;17164;48.590;11.410;2023-07-13T04:03:30;11.50;;;4.73;;
30370;SDS011;17164;48.590;11.410;2023-07-13T04:06:01;7.93;;;4.83;;
30370;SDS011;17164;48.590;11.410;2023-07-13T04:08:35;8.90;;;4.80;;
30370;SDS011;17164;48.590;11.410;2023-07-13T04:11:02;15.07;;;4.97;;
30370;SDS011;17164;48.590;11.410;2023-07-13T04:13:29;12.53;;;5.03;;
30370;SDS011;17164;48.590;11.410;2023-07-13T04:15:55;7.23;;;4.73;;
30370;SDS011;17164;48.590;11.410;2023-07-13T04:18:21;10.70;;;5.00;;
30370;SDS011;17164;48.590;11.410;2023-07-13T04:20:47;12.57;;;5.03;;
30370;SDS011;17164;48.590;11.410;2023-07-13T04:23:13;10.83;;;4.43;;
30370;SDS011;17164;48.590;11.410;2023-07-13T04:25:39;9.03;;;4.40;;
30370;SDS011;17164;48.590;11.410;2023-07-13T04:28:09;8.60;;;4.00;;
30370;SDS011;17164;48.590;11.410;2023-07-13T04:30:35;9.33;;;3.67;;
30370;SDS011;17164;48.590;11.410;2023-07-13T04:33:00;9.03;;;3.73;;
30370;SDS011;17164;48.590;11.410;2023-07-13T04:35:26;9.87;;;4.27;;
30370;SDS011;17164;48.590;11.410;2023-07-13T04:37:52;8.03;;;3.47;;
30370;SDS011;17164;48.590;11.410;2023-07-13T04:40:18;7.87;;;3.27;;
30370;SDS011;17164;48.590;11.410;2023-07-13T04:42:44;9.33;;;3.67;;
30370;SDS011;17164;48.590;11.410;2023-07-13T04:45:10;7.73;;;3.57;;
30370;SDS011;17164;48.590;11.410;2023-07-13T04:47:37;10.63;;;3.30;;
30370;SDS011;17164;48.590;11.410;2023-07-13T04:50:03;10.33;;;3.73;;
30370;SDS011;17164;48.590;11.410;2023-07-13T04:52:29;7.03;;;2.90;;
30370;SDS011;17164;48.590;11.410;2023-07-13T04:54:55;6.53;;;3.13;;
30370;SDS011;17164;48.590;11.410;2023-07-13T04:57:20;6.47;;;3.33;;
30370;SDS011;17164;48.590;11.410;2023-07-13T04:59:46;8.10;;;3.03;;
30370;SDS011;17164;48.590;11.410;2023-07-13T05:02:12;7.10;;;3.17;;
30370;SDS011;17164;48.590;11.410;2023-07-13T05:04:37;12.03;;;3.20;;
30370;SDS011;17164;48.590;11.410;2023-07-13T05:07:05;6.67;;;3.40;;
30370;SDS011;17164;48.590;11.410;2023-07-13T05:09:31;7.07;;;3.37;;
30370;SDS011;17164;48.590;11.410;2023-07-13T05:11:57;8.80;;;3.43;;
30370;SDS011;17164;48.590;11.410;2023-07-13T05:14:22;5.37;;;2.83;;
30370;SDS011;17164;48.590;11.410;2023-07-13T05:16:48;6.20;;;3.47;;
30370;SDS011;17164;48.590;11.410;2023-07-13T05:19:13;8.63;;;2.93;;
30370;SDS011;17164;48.590;11.410;2023-07-13T05:21:39;7.60;;;3.07;;
30370;SDS011;17164;48.590;11.410;2023-07-13T05:24:06;8.50;;;3.23;;
30370;SDS011;17164;48.590;11.410;2023-07-13T05:26:31;6.40;;;3.00;;
30370;SDS011;17164;48.590;11.410;2023-07-13T05:28:57;10.27;;;3.03;;
30370;SDS011;17164;48.590;11.410;2023-07-13T05:31:23;7.90;;;2.97;;
30370;SDS011;17164;48.590;11.410;2023-07-13T05:33:48;6.17;;;2.87;;
30370;SDS011;17164;48.590;11.410;2023-07-13T05:36:14;8.77;;;3.20;;
30370;SDS011;17164;48.590;11.410;2023-07-13T05:38:40;7.60;;;3.50;;
30370;SDS011;17164;48.590;11.410;2023-07-13T05:41:05;6.50;;;2.80;;
30370;SDS011;17164;48.590;11.410;2023-07-13T05:43:31;7.87;;;2.87;;
30370;SDS011;17164;48.590;11.410;2023-07-13T05:45:57;9.07;;;3.30;;
30370;SDS011;17164;48.590;11.410;2023-07-13T05:48:23;4.57;;;2.13;;
30370;SDS011;17164;48.590;11.410;2023-07-13T05:50:49;7.30;;;2.43;;
30370;SDS011;17164;48.590;11.410;2023-07-13T05:53:14;5.47;;;2.27;;
30370;SDS011;17164;48.590;11.410;2023-07-13T05:55:41;4.17;;;2.33;;
30370;SDS011;17164;48.590;11.410;2023-07-13T05:58:15;4.87;;;2.20;;
30370;SDS011;17164;48.590;11.410;2023-07-13T06:00:41;5.10;;;2.00;;
30370;SDS011;17164;48.590;11.410;2023-07-13T06:03:07;6.87;;;2.60;;
30370;SDS011;17164;48.590;11.410;2023-07-13T06:05:33;5.43;;;2.47;;
30370;SDS011;17164;48.590;11.410;2023-07-13T06:08:01;5.77;;;2.00;;
30370;SDS011;17164;48.590;11.410;2023-07-13T06:10:26;5.97;;;2.57;;
30370;SDS011;17164;48.590;11.410;2023-07-13T06:12:52;16.70;;;2.87;;
30370;SDS011;17164;48.590;11.410;2023-07-13T06:15:17;9.27;;;2.20;;
30370;SDS011;17164;48.590;11.410;2023-07-13T06:17:43;7.63;;;2.10;;
30370;SDS011;17164;48.590;11.410;2023-07-13T06:20:09;11.20;;;2.10;;
30370;SDS011;17164;48.590;11.410;2023-07-13T06:22:35;4.30;;;1.83;;
30370;SDS011;17164;48.590;11.410;2023-07-13T06:25:01;7.80;;;1.90;;
30370;SDS011;17164;48.590;11.410;2023-07-13T06:27:26;8.67;;;2.10;;
30370;SDS011;17164;48.590;11.410;2023-07-13T06:29:52;6.63;;;1.97;;
30370;SDS011;17164;48.590;11.410;2023-07-13T06:32:18;7.57;;;2.17;;
30370;SDS011;17164;48.590;11.410;2023-07-13T06:34:43;7.50;;;2.43;;
30370;SDS011;17164;48.590;11.410;2023-07-13T06:37:09;4.13;;;1.73;;
30370;SDS011;17164;48.590;11.410;2023-07-13T06:39:35;4.57;;;1.73;;
30370;SDS011;17164;48.590;11.410;2023-07-13T06:42:00;10.37;;;1.70;;
30370;SDS011;17164;48.590;11.410;2023-07-13T06:44:26;3.40;;;1.67;;
30370;SDS011;17164;48.590;11.410;2023-07-13T06:46:52;7.40;;;2.00;;
30370;SDS011;17164;48.590;11.410;2023-07-13T06:49:17;7.97;;;3.67;;
30370;SDS011;17164;48.590;11.410;2023-07-13T06:51:43;4.93;;;1.80;;
30370;SDS011;17164;48.590;11.410;2023-07-13T06:54:08;7.90;;;1.83;;
30370;SDS011;17164;48.590;11.410;2023-07-13T06:56:34;5.87;;;1.73;;
30370;SDS011;17164;48.590;11.410;2023-07-13T06:59:00;9.50;;;2.20;;
30370;SDS011;17164;48.590;11.410;2023-07-13T07:01:25;3.73;;;1.20;;
30370;SDS011;17164;48.590;11.410;2023-07-13T07:03:51;2.50;;;1.53;;
30370;SDS011;17164;48.590;11.410;2023-07-13T07:06:17;6.80;;;1.63;;
30370;SDS011;17164;48.590;11.410;2023-07-13T07:08:45;5.00;;;1.57;;
30370;SDS011;17164;48.590;11.410;2023-07-13T07:11:12;7.40;;;1.20;;
30370;SDS011;17164;48.590;11.410;2023-07-13T07:13:39;4.10;;;1.40;;
30370;SDS011;17164;48.590;11.410;2023-07-13T07:16:05;5.57;;;1.73;;
30370;SDS011;17164;48.590;11.410;2023-07-13T07:18:31;2.47;;;1.50;;
30370;SDS011;17164;48.590;11.410;2023-07-13T07:20:57;4.70;;;1.50;;
30370;SDS011;17164;48.590;11.410;2023-07-13T07:23:23;3.60;;;1.50;;
30370;SDS011;17164;48.590;11.410;2023-07-13T07:25:48;6.30;;;1.60;;
30370;SDS011;17164;48.590;11.410;2023-07-13T07:28:14;3.87;;;1.87;;
30370;SDS011;17164;48.590;11.410;2023-07-13T07:30:43;7.47;;;2.27;;
30370;SDS011;17164;48.590;11.410;2023-07-13T07:33:09;3.23;;;1.67;;
30370;SDS011;17164;48.590;11.410;2023-07-13T07:35:35;8.20;;;1.60;;
30370;SDS011;17164;48.590;11.410;2023-07-13T07:38:01;2.67;;;1.37;;
30370;SDS011;17164;48.590;11.410;2023-07-13T07:40:26;2.23;;;1.27;;
30370;SDS011;17164;48.590;11.410;2023-07-13T07:42:52;5.47;;;1.70;;
30370;SDS011;17164;48.590;11.410;2023-07-13T07:45:18;6.83;;;1.57;;
30370;SDS011;17164;48.590;11.410;2023-07-13T07:47:44;5.03;;;1.60;;
30370;SDS011;17164;48.590;11.410;2023-07-13T07:50:10;5.20;;;1.30;;
30370;SDS011;17164;48.590;11.410;2023-07-13T07:52:35;3.30;;;1.43;;
30370;SDS011;17164;48.590;11.410;2023-07-13T07:55:01;5.27;;;1.40;;
30370;SDS011;17164;48.590;11.410;2023-07-13T07:57:28;2.70;;;1.53;;
30370;SDS011;17164;48.590;11.410;2023-07-13T07:59:54;7.63;;;1.57;;
30370;SDS011;17164;48.590;11.410;2023-07-13T08:02:19;5.70;;;1.50;;
30370;SDS011;17164;48.590;11.410;2023-07-13T08:04:45;9.73;;;1.30;;
30370;SDS011;17164;48.590;11.410;2023-07-13T08:07:10;5.70;;;1.73;;
30370;SDS011;17164;48.590;11.410;2023-07-13T08:09:36;6.63;;;1.77;;
30370;SDS011;17164;48.590;11.410;2023-07-13T08:12:02;5.83;;;1.27;;
30370;SDS011;17164;48.590;11.410;2023-07-13T08:14:27;4.43;;;1.50;;
30370;SDS011;17164;48.590;11.410;2023-07-13T08:16:53;5.77;;;1.40;;
30370;SDS011;17164;48.590;11.410;2023-07-13T08:19:19;7.53;;;1.37;;
30370;SDS011;17164;48.590;11.410;2023-07-13T08:21:44;5.63;;;1.50;;
30370;SDS011;17164;48.590;11.410;2023-07-13T08:24:13;2.43;;;1.07;;
30370;SDS011;17164;48.590;11.410;2023-07-13T08:26:38;3.00;;;1.23;;
30370;SDS011;17164;48.590;11.410;2023-07-13T08:29:04;6.07;;;1.97;;
30370;SDS011;17164;48.590;11.410;2023-07-13T08:31:30;5.90;;;1.30;;
30370;SDS011;17164;48.590;11.410;2023-07-13T08:33:55;7.87;;;1.40;;
30370;SDS011;17164;48.590;11.410;2023-07-13T08:36:21;2.57;;;1.13;;
30370;SDS011;17164;48.590;11.410;2023-07-13T08:38:46;4.17;;;1.10;;
30370;SDS011;17164;48.590;11.410;2023-07-13T08:41:13;3.20;;;1.13;;
30370;SDS011;17164;48.590;11.410;2023-07-13T08:43:42;8.77;;;1.47;;
30370;SDS011;17164;48.590;11.410;2023-07-13T08:46:13;6.10;;;1.20;;
30370;SDS011;17164;48.590;11.410;2023-07-13T08:48:48;2.70;;;1.03;;
30370;SDS011;17164;48.590;11.410;2023-07-13T08:57:12;2.50;;;1.20;;
30370;SDS011;17164;48.590;11.410;2023-07-13T08:59:42;5.70;;;1.17;;
30370;SDS011;17164;48.590;11.410;2023-07-13T09:05:10;2.23;;;1.10;;
30370;SDS011;17164;48.590;11.410;2023-07-13T09:08:00;2.85;;;1.08;;
30370;SDS011;17164;48.590;11.410;2023-07-13T09:10:46;3.07;;;1.43;;
30370;SDS011;17164;48.590;11.410;2023-07-13T09:15:51;4.57;;;1.00;;
30370;SDS011;17164;48.590;11.410;2023-07-13T09:20:56;4.27;;;1.10;;
30370;SDS011;17164;48.590;11.410;2023-07-13T09:23:26;3.77;;;1.13;;
30370;SDS011;17164;48.590;11.410;2023-07-13T09:26:04;5.03;;;1.27;;
30370;SDS011;17164;48.590;11.410;2023-07-13T09:28:37;3.73;;;1.07;;
30370;SDS011;17164;48.590;11.410;2023-07-13T09:33:35;3.50;;;1.23;;
30370;SDS011;17164;48.590;11.410;2023-07-13T09:36:00;2.20;;;1.17;;
30370;SDS011;17164;48.590;11.410;2023-07-13T09:38:27;3.13;;;1.40;;
30370;SDS011;17164;48.590;11.410;2023-07-13T09:41:04;4.63;;;1.10;;
30370;SDS011;17164;48.590;11.410;2023-07-13T09:44:09;3.10;;;1.00;;
30370;SDS011;17164;48.590;11.410;2023-07-13T09:46:35;3.03;;;1.10;;
30370;SDS011;17164;48.590;11.410;2023-07-13T09:49:02;3.30;;;1.10;;
30370;SDS011;17164;48.590;11.410;2023-07-13T09:51:27;2.03;;;1.10;;
30370;SDS011;17164;48.590;11.410;2023-07-13T09:53:53;4.03;;;1.10;;
30370;SDS011;17164;48.590;11.410;2023-07-13T09:56:23;5.23;;;1.00;;
30370;SDS011;17164;48.590;11.410;2023-07-13T09:58:52;2.27;;;1.00;;
30370;SDS011;17164;48.590;11.410;2023-07-13T10:01:30;4.73;;;1.00;;
30370;SDS011;17164;48.590;11.410;2023-07-13T10:03:58;4.10;;;1.27;;
30370;SDS011;17164;48.590;11.410;2023-07-13T10:06:24;2.10;;;1.00;;
30370;SDS011;17164;48.590;11.410;2023-07-13T10:08:51;2.07;;;0.90;;
30370;SDS011;17164;48.590;11.410;2023-07-13T10:11:22;5.73;;;1.10;;
30370;SDS011;17164;48.590;11.410;2023-07-13T10:13:58;1.57;;;1.13;;
30370;SDS011;17164;48.590;11.410;2023-07-13T10:16:25;2.90;;;1.13;;
30370;SDS011;17164;48.590;11.410;2023-07-13T10:18:55;2.10;;;1.00;;
30370;SDS011;17164;48.590;11.410;2023-07-13T10:21:49;5.57;;;1.57;;
30370;SDS011;17164;48.590;11.410;2023-07-13T10:24:24;3.83;;;1.30;;
30370;SDS011;17164;48.590;11.410;2023-07-13T10:26:56;3.13;;;1.20;;
30370;SDS011;17164;48.590;11.410;2023-07-13T10:29:29;2.33;;;1.07;;
30370;SDS011;17164;48.590;11.410;2023-07-13T10:32:00;3.47;;;1.20;;
30370;SDS011;17164;48.590;11.410;2023-07-13T10:34:26;3.27;;;1.30;;
30370;SDS011;17164;48.590;11.410;2023-07-13T10:36:52;4.40;;;1.10;;
30370;SDS011;17164;48.590;11.410;2023-07-13T10:39:19;4.60;;;1.40;;
30370;SDS011;17164;48.590;11.410;2023-07-13T10:41:50;4.20;;;1.37;;
30370;SDS011;17164;48.590;11.410;2023-07-13T10:44:23;2.27;;;1.10;;
30370;SDS011;17164;48.590;11.410;2023-07-13T10:46:57;5.23;;;1.63;;
30370;SDS011;17164;48.590;11.410;2023-07-13T10:49:26;8.30;;;1.50;;
30370;SDS011;17164;48.590;11.410;2023-07-13T10:51:55;2.57;;;1.17;;
30370;SDS011;17164;48.590;11.410;2023-07-13T10:54:26;3.33;;;1.47;;
30370;SDS011;17164;48.590;11.410;2023-07-13T10:59:48;4.53;;;1.17;;
30370;SDS011;17164;48.590;11.410;2023-07-13T11:02:33;3.37;;;1.20;;
30370;SDS011;17164;48.590;11.410;2023-07-13T11:04:59;4.63;;;1.20;;
30370;SDS011;17164;48.590;11.410;2023-07-13T11:13:38;5.23;;;1.30;;
30370;SDS011;17164;48.590;11.410;2023-07-13T11:16:13;3.63;;;1.37;;
30370;SDS011;17164;48.590;11.410;2023-07-13T11:18:45;4.13;;;1.20;;
30370;SDS011;17164;48.590;11.410;2023-07-13T11:21:16;7.17;;;1.67;;
30370;SDS011;17164;48.590;11.410;2023-07-13T11:23:53;5.10;;;1.53;;
30370;SDS011;17164;48.590;11.410;2023-07-13T11:29:27;2.80;;;1.17;;
30370;SDS011;17164;48.590;11.410;2023-07-13T11:32:02;5.27;;;1.30;;
30370;SDS011;17164;48.590;11.410;2023-07-13T11:34:56;8.37;;;1.53;;
30370;SDS011;17164;48.590;11.410;2023-07-13T11:37:22;5.30;;;1.30;;
30370;SDS011;17164;48.590;11.410;2023-07-13T11:39:50;2.97;;;1.37;;
30370;SDS011;17164;48.590;11.410;2023-07-13T11:42:18;2.60;;;1.40;;
30370;SDS011;17164;48.590;11.410;2023-07-13T11:44:46;5.20;;;1.33;;
30370;SDS011;17164;48.590;11.410;2023-07-13T11:47:17;4.33;;;1.50;;
30370;SDS011;17164;48.590;11.410;2023-07-13T11:49:53;3.90;;;1.10;;
30370;SDS011;17164;48.590;11.410;2023-07-13T11:52:35;3.33;;;1.20;;
30370;SDS011;17164;48.590;11.410;2023-07-13T11:55:03;3.47;;;1.10;;
30370;SDS011;17164;48.590;11.410;2023-07-13T11:57:50;2.13;;;1.27;;
30370;SDS011;17164;48.590;11.410;2023-07-13T12:00:25;3.80;;;1.53;;
30370;SDS011;17164;48.590;11.410;2023-07-13T12:02:54;2.93;;;1.30;;
30370;SDS011;17164;48.590;11.410;2023-07-13T12:05:22;4.47;;;1.40;;
30370;SDS011;17164;48.590;11.410;2023-07-13T12:07:48;5.30;;;1.50;;
30370;SDS011;17164;48.590;11.410;2023-07-13T12:12:47;2.53;;;1.30;;
30370;SDS011;17164;48.590;11.410;2023-07-13T12:15:13;6.87;;;1.60;;
30370;SDS011;17164;48.590;11.410;2023-07-13T12:17:38;4.80;;;1.30;;
30370;SDS011;17164;48.590;11.410;2023-07-13T12:20:40;3.77;;;1.30;;
30370;SDS011;17164;48.590;11.410;2023-07-13T12:23:00;4.47;;;1.30;;
30370;SDS011;17164;48.590;11.410;2023-07-13T12:25:27;5.90;;;1.40;;
30370;SDS011;17164;48.590;11.410;2023-07-13T12:27:54;4.33;;;1.10;;
30370;SDS011;17164;48.590;11.410;2023-07-13T12:30:24;3.53;;;1.10;;
30370;SDS011;17164;48.590;11.410;2023-07-13T12:32:56;2.97;;;1.20;;
30370;SDS011;17164;48.590;11.410;2023-07-13T12:35:39;4.13;;;1.23;;
30370;SDS011;17164;48.590;11.410;2023-07-13T12:38:12;3.77;;;1.10;;
30370;SDS011;17164;48.590;11.410;2023-07-13T12:40:39;3.30;;;1.30;;
30370;SDS011;17164;48.590;11.410;2023-07-13T12:43:09;6.67;;;1.50;;
30370;SDS011;17164;48.590;11.410;2023-07-13T12:45:37;1.63;;;1.13;;
30370;SDS011;17164;48.590;11.410;2023-07-13T12:48:13;2.63;;;1.20;;
30370;SDS011;17164;48.590;11.410;2023-07-13T12:50:41;5.93;;;1.30;;
30370;SDS011;17164;48.590;11.410;2023-07-13T12:53:15;2.87;;;1.43;;
30370;SDS011;17164;48.590;11.410;2023-07-13T12:55:55;5.33;;;1.33;;
30370;SDS011;17164;48.590;11.410;2023-07-13T13:01:03;4.27;;;1.30;;
30370;SDS011;17164;48.590;11.410;2023-07-13T13:06:02;2.83;;;1.27;;
30370;SDS011;17164;48.590;11.410;2023-07-13T13:08:30;4.67;;;1.40;;
30370;SDS011;17164;48.590;11.410;2023-07-13T13:10:56;3.33;;;1.40;;
30370;SDS011;17164;48.590;11.410;2023-07-13T13:13:22;2.03;;;1.00;;
30370;SDS011;17164;48.590;11.410;2023-07-13T13:15:47;3.20;;;1.20;;
30370;SDS011;17164;48.590;11.410;2023-07-13T13:18:22;2.50;;;1.13;;
30370;SDS011;17164;48.590;11.410;2023-07-13T13:20:51;3.30;;;1.20;;
30370;SDS011;17164;48.590;11.410;2023-07-13T13:23:17;5.40;;;0.97;;
30370;SDS011;17164;48.590;11.410;2023-07-13T13:25:45;3.70;;;0.90;;
30370;SDS011;17164;48.590;11.410;2023-07-13T13:28:17;4.10;;;1.40;;
30370;SDS011;17164;48.590;11.410;2023-07-13T13:30:44;6.40;;;1.13;;
30370;SDS011;17164;48.590;11.410;2023-07-13T13:33:13;2.50;;;1.20;;
30370;SDS011;17164;48.590;11.410;2023-07-13T13:35:41;8.87;;;1.20;;
30370;SDS011;17164;48.590;11.410;2023-07-13T13:38:24;2.97;;;1.20;;
30370;SDS011;17164;48.590;11.410;2023-07-13T13:40:51;3.80;;;1.10;;
30370;SDS011;17164;48.590;11.410;2023-07-13T13:45:44;5.37;;;1.03;;
30370;SDS011;17164;48.590;11.410;2023-07-13T13:48:17;3.27;;;1.00;;
30370;SDS011;17164;48.590;11.410;2023-07-13T13:50:46;1.77;;;1.07;;
30370;SDS011;17164;48.590;11.410;2023-07-13T13:53:13;1.83;;;1.20;;
30370;SDS011;17164;48.590;11.410;2023-07-13T13:55:39;3.63;;;1.20;;
30370;SDS011;17164;48.590;11.410;2023-07-13T13:58:09;4.27;;;1.00;;
30370;SDS011;17164;48.590;11.410;2023-07-13T14:00:36;3.33;;;1.43;;
30370;SDS011;17164;48.590;11.410;2023-07-13T14:03:03;2.77;;;1.00;;
30370;SDS011;17164;48.590;11.410;2023-07-13T14:05:29;3.53;;;1.40;;
30370;SDS011;17164;48.590;11.410;2023-07-13T14:07:55;1.97;;;1.03;;
30370;SDS011;17164;48.590;11.410;2023-07-13T14:10:22;2.30;;;1.20;;
30370;SDS011;17164;48.590;11.410;2023-07-13T14:12:50;2.13;;;0.90;;
30370;SDS011;17164;48.590;11.410;2023-07-13T14:15:21;4.53;;;1.20;;
30370;SDS011;17164;48.590;11.410;2023-07-13T14:17:55;2.30;;;1.10;;
30370;SDS011;17164;48.590;11.410;2023-07-13T14:20:23;4.83;;;0.97;;
30370;SDS011;17164;48.590;11.410;2023-07-13T14:22:50;3.90;;;1.17;;
30370;SDS011;17164;48.590;11.410;2023-07-13T14:25:17;2.93;;;1.03;;
30370;SDS011;17164;48.590;11.410;2023-07-13T14:27:45;6.37;;;1.20;;
30370;SDS011;17164;48.590;11.410;2023-07-13T14:30:14;3.87;;;1.10;;
30370;SDS011;17164;48.590;11.410;2023-07-13T14:32:41;4.13;;;1.20;;
30370;SDS011;17164;48.590;11.410;2023-07-13T14:35:10;3.60;;;1.13;;
30370;SDS011;17164;48.590;11.410;2023-07-13T14:37:37;2.50;;;0.90;;
30370;SDS011;17164;48.590;11.410;2023-07-13T14:40:11;4.20;;;1.10;;
30370;SDS011;17164;48.590;11.410;2023-07-13T14:42:41;4.83;;;1.30;;
30370;SDS011;17164;48.590;11.410;2023-07-13T14:45:14;3.27;;;1.17;;
30370;SDS011;17164;48.590;11.410;2023-07-13T14:47:41;1.83;;;1.07;;
30370;SDS011;17164;48.590;11.410;2023-07-13T14:50:18;3.60;;;1.00;;
30370;SDS011;17164;48.590;11.410;2023-07-13T14:52:46;6.50;;;1.20;;
30370;SDS011;17164;48.590;11.410;2023-07-13T14:55:16;4.07;;;1.10;;
30370;SDS011;17164;48.590;11.410;2023-07-13T14:57:43;3.53;;;1.20;;
30370;SDS011;17164;48.590;11.410;2023-07-13T15:00:14;2.67;;;1.20;;
30370;SDS011;17164;48.590;11.410;2023-07-13T15:02:47;3.63;;;1.17;;
30370;SDS011;17164;48.590;11.410;2023-07-13T15:05:16;6.17;;;1.53;;
30370;SDS011;17164;48.590;11.410;2023-07-13T15:07:44;2.67;;;1.07;;
30370;SDS011;17164;48.590;11.410;2023-07-13T15:10:13;4.20;;;1.30;;
30370;SDS011;17164;48.590;11.410;2023-07-13T15:12:43;4.60;;;1.20;;
30370;SDS011;17164;48.590;11.410;2023-07-13T15:15:10;4.07;;;1.30;;
30370;SDS011;17164;48.590;11.410;2023-07-13T15:17:39;1.87;;;0.97;;
30370;SDS011;17164;48.590;11.410;2023-07-13T15:22:42;1.77;;;0.93;;